Ride Results

Spring Mountain Challenge (21-06-2009)
Ride distance: 80.0 km

Outcomes - Spring Mountain Challenge (21-06-2009)
Division No. of Entries Retired / DNE Completed Withdrawn Ineligible V/O Percentage Completed
HW 12 - 6 - - 6 50.00%
MW 28 - 25 - - 3 89.29%
LW 14 - 10 2 - 2 71.43%
JN 8 - 7 1 - - 87.50%
Totals 62 - 48 3 - 11 77.42%
Results - Spring Mountain Challenge (21-06-2009)
No. Rider Horse Place Time Leg Speeds Total
Km/Hr
H/R bpm
Heavyweight
197 Ricky Petersen Ashraf Sparkling Polaris 1 (BC) 5:28:02 16.5, 12.6 14.63 38, 47, 54 (Avg:50)
181 Jan Rohweder Charlie Chaplin 2 7:14:00 11.6, 10.3 11.06 34, 45, 48 (Avg:46)
184 Selwyn Nix Aloha Inari 3 7:17:00 11.8, 9.9 10.98 36, 42, 42 (Avg:42)
186 Nigel Stephens Mataranka Diamonds 4 7:20:00 11.4, 10.1 10.91 36, 50, 53 (Avg:51)
174 Denise Kaye Die Kinder Traveller 5 7:25:00 11.3, 10.0 10.79 34, 47, 51 (Avg:49)
140 Matthew Gadsby Harmony Park Spirit 6 7:50:00 10.3, 10.0 10.21 28, 40, 40 (Avg:40)
169 Marty Branigan Cameo Apassionataa Lame L2 0:00:00 9.8, 8.9 - 33, 45, 42 (Avg:43)
187 Arch Felton Inshallah Maximus Heart Rate L2 0:00:00 13.5, 10.1 - 60, 53, 66 (Avg:59)
154 Maurice Gray Cheveaux Prelude Heart Rate L2 0:00:00 13.2, 8.1 - 42, 51, 64 (Avg:57)
156 Brian Maher Sundust Mynstral Lame L2 0:00:00 12.3, 10.4 - 37, 40, 53 (Avg:46)
183 Paul Fitzgerald Lanamere Roulette Lame L1 0:00:00 13.4 - 34, 49 (Avg:49)
141 Paul Lengronne Performance Park Lady Kharisma Lame L1 0:00:00 15.0 - 32, 42 (Avg:42)
Middleweight
167 Akhmed Pshunov Mt Eerwah Siridion 1 (BC) 4:11:00 19.0, 19.2 19.12 33, 49, 49 (Avg:49)
160 Stephen Gray Kasbah Kid 2 4:39:00 18.9, 15.3 17.20 36, 47, 49 (Avg:48)
166 Gayle Holmes Captain's Creek Rupert 3 5:05:00 15.6, 15.8 15.74 32, 42, 49 (Avg:45)
144 Tami Parnell Churinga Desire 4 5:05:02 18.9, 12.8 15.74 32, 41, 54 (Avg:47)
199 Emma Masters Die Kinder Lunar Eclipse 5 5:28:00 16.1, 12.9 14.63 40, 48, 55 (Avg:51)
170 Simone Krahnen Ardai 6 5:39:00 14.9, 13.1 14.16 39, 44, 51 (Avg:47)
152 Renae Kuhn Splitters Creek Bundy 7 5:54:00 15.0, 11.9 13.56 32, 45, 45 (Avg:45)
155 Cora Becker Bones the Wizard 8 5:59:00 13.9, 12.6 13.37 33, 38, 43 (Avg:40)
182 Caroline Fitzgerald Lanamere Kudos 9 6:38:00 13.4, 10.5 12.06 34, 44, 44 (Avg:44)
193 Debbie Forsdike Bacchante Valentina 9 6:38:00 11.9, 12.2 12.06 33, 42, 53 (Avg:47)
179 Angela Head Razorback Love Song 9 6:38:00 11.9, 12.2 12.06 35, 43, 42 (Avg:42)
185 Jenny Noffke Georgia 12 6:53:00 13.2, 9.9 11.62 37, 39, 56 (Avg:47)
164 Ken Moir Eskdale Shakago Bae 13 6:54:00 13.4, 9.7 11.59 34, 40, 48 (Avg:44)
162 Ronan Cahill Marja My Girl 14 7:17:00 11.9, 9.8 10.98 33, 39, 42 (Avg:40)
145 Narelle Childs Halo Kazaam 14 7:17:00 11.8, 9.9 10.98 33, 41, 50 (Avg:45)
163 Leeanne Bartlett Bonnie Downs Diamond 16 7:38:00 11.8, 9.0 10.48 36, 44, 47 (Avg:45)
153 Gerard Bou Aloha Contiki 17 7:50:00 10.3, 10.0 10.21 34, 49, 52 (Avg:50)
192 Ben Caslick Ra-Anji Storm Prince 17 7:50:00 10.3, 10.0 10.21 37, 46, 50 (Avg:48)
143 Marion Lengronne Maximal Silver Amulet 17 7:50:00 10.3, 10.0 10.21 43, 44, 43 (Avg:43)
180 Kimberley Ryan Cooroora Mythril 17 7:50:00 10.3, 10.0 10.21 35, 45, 49 (Avg:47)
150 Justin Otto Woodbourne Cloud 21 8:02:00 10.5, 9.2 9.96 36, 44, 44 (Avg:44)
139 Adrian Brickley Duray Chime The Bells 22 8:07:00 10.4, 9.1 9.86 36, 43, 52 (Avg:47)
177 Natalie McIntyre Barkala Envoy 23 8:19:00 10.9, 8.2 9.62 30, 44, 41 (Avg:42)
195 Tammie Bell Moon 24 8:24:00 9.9, 9.0 9.52 31, 43, 53 (Avg:48)
189 Cathie Bruce Steel Poppy Dali 25 8:28:00 9.9, 8.8 9.45 32, 38, 42 (Avg:40)
149 Sk Saeed BinMaktoum La Crysada Lame L2 0:00:00 19.0, 19.2 - 40, 46, 55 (Avg:50)
168 Jo Hamilton-Branigan Abrock Noah Lame L2 0:00:00 9.8, 8.9 - 35, 42, 45 (Avg:43)
138 Bill Ward Ubejane Lame L1 0:00:00 18.5 - 34, 49 (Avg:49)
Lightweight
142 Sally Genninges Chazar Bandana 1 (BC) 5:54:02 15.0, 11.9 13.56 37, 45, 53 (Avg:49)
137 Kim Ruehe Allyndah Silver Soverign 2 6:55:00 13.4, 9.7 11.57 37, 49, 60 (Avg:54)
200 Clare Fleming Naz-Ton Beau Brummel 3 7:10:00 12.3, 9.9 11.16 32, 39, 41 (Avg:40)
175 Christine Ablett Lindall Falen 4 7:14:00 11.6, 10.3 11.06 30, 40, 42 (Avg:41)
198 Angela Hawks Crysari 5 7:50:00 10.3, 10.0 10.21 32, 41, 48 (Avg:44)
146 Bec Miller Kazoo Park Bobby Boy 6 8:07:00 10.4, 9.1 9.86 34, 43, 46 (Avg:44)
178 Louise Jackson Sabajet 7 8:19:00 10.8, 8.3 9.62 32, 41, 38 (Avg:39)
196 Jocelyn Barnes Trinity 8 8:24:00 9.9, 9.0 9.52 36, 44, 40 (Avg:42)
194 Janelle Weise Esscort's True Confessions 8 8:24:00 9.9, 9.0 9.52 31, 41, 49 (Avg:45)
188 Sonya Ryan Kholonial Amigo 10 8:28:00 9.9, 8.8 9.45 35, 46, 53 (Avg:49)
190 Robin Young Melawondi Lame L2 0:00:00 10.8, 7.6 - 32, 43, 44 (Avg:43)
159 Judy Battams Landmark Sarafeena Heart Rate L1 0:00:00 11.5 - 39, 59 (Avg:59)
158 Janina Crane El Rebel Stimulator Withdrawn L1 0:00:00 - - 40, 50 (Avg:50)
157 Jeanna Maher Red Gum Trinket Withdrawn P/R 0:00:00 - - 36
Junior
172 Connor Krahnen Kalkadoon Shalom 1 5:39:02 14.9, 13.1 14.16 33, 43, 52 (Avg:47)
173 Colleen Krahnen Kalkadoon Viva 1 (BC) 5:39:02 14.9, 13.1 14.16 33, 42, 43 (Avg:42)
171 Erin Krahnen Rodborough Bey Abdul 3 6:38:00 13.2, 10.7 12.06 29, 52, 43 (Avg:47)
165 Sharn Brooker Hirstglen Texas Rose 4 6:38:02 13.2, 10.7 12.06 36, 44, 40 (Avg:42)
161 Jake Gray Ashraf Sparkling Panache 5 7:09:00 13.3, 9.1 11.19 32, 39, 46 (Avg:42)
151 David Anderson Jnr Count Lea 6 8:07:00 10.4, 9.1 9.86 30, 38, 39 (Avg:38)
148 Jessyca Dakin Aquarius Park Chantilly Lace 6 8:07:00 10.4, 9.1 9.86 32, 43, 42 (Avg:42)
176 Steph Tulk Splendacrest Tumbleweed Withdrawn P/R 0:00:00 - - 36